sensor_id;sensor_type;location;lat;lon;timestamp;P1;durP1;ratioP1;P2;durP2;ratioP2
13641;SDS011;6894;52.196;9.904;2022-08-19T00:01:54;11.63;;;10.00;;
13641;SDS011;6894;52.196;9.904;2022-08-19T00:04:23;11.77;;;10.47;;
13641;SDS011;6894;52.196;9.904;2022-08-19T00:06:52;11.67;;;10.47;;
13641;SDS011;6894;52.196;9.904;2022-08-19T00:09:21;13.73;;;9.90;;
13641;SDS011;6894;52.196;9.904;2022-08-19T00:11:49;10.87;;;9.77;;
13641;SDS011;6894;52.196;9.904;2022-08-19T00:14:16;16.50;;;11.47;;
13641;SDS011;6894;52.196;9.904;2022-08-19T00:16:46;15.70;;;11.10;;
13641;SDS011;6894;52.196;9.904;2022-08-19T00:19:13;12.03;;;10.93;;
13641;SDS011;6894;52.196;9.904;2022-08-19T00:21:40;12.33;;;10.43;;
13641;SDS011;6894;52.196;9.904;2022-08-19T00:24:09;12.67;;;9.87;;
13641;SDS011;6894;52.196;9.904;2022-08-19T00:26:38;15.10;;;10.47;;
13641;SDS011;6894;52.196;9.904;2022-08-19T00:29:07;11.43;;;10.27;;
13641;SDS011;6894;52.196;9.904;2022-08-19T00:31:35;13.87;;;11.37;;
13641;SDS011;6894;52.196;9.904;2022-08-19T00:34:02;15.03;;;10.47;;
13641;SDS011;6894;52.196;9.904;2022-08-19T00:36:29;13.37;;;11.07;;
13641;SDS011;6894;52.196;9.904;2022-08-19T00:38:57;13.80;;;10.97;;
13641;SDS011;6894;52.196;9.904;2022-08-19T00:41:24;12.67;;;10.10;;
13641;SDS011;6894;52.196;9.904;2022-08-19T00:44:03;12.57;;;9.30;;
13641;SDS011;6894;52.196;9.904;2022-08-19T00:46:32;11.40;;;10.30;;
13641;SDS011;6894;52.196;9.904;2022-08-19T00:49:02;9.93;;;8.93;;
13641;SDS011;6894;52.196;9.904;2022-08-19T00:51:32;10.00;;;9.00;;
13641;SDS011;6894;52.196;9.904;2022-08-19T00:54:00;9.90;;;8.90;;
13641;SDS011;6894;52.196;9.904;2022-08-19T00:56:29;9.73;;;8.73;;
13641;SDS011;6894;52.196;9.904;2022-08-19T00:58:57;9.33;;;7.67;;
13641;SDS011;6894;52.196;9.904;2022-08-19T01:01:28;12.53;;;9.13;;
13641;SDS011;6894;52.196;9.904;2022-08-19T01:03:55;12.53;;;9.93;;
13641;SDS011;6894;52.196;9.904;2022-08-19T01:06:21;9.30;;;7.90;;
13641;SDS011;6894;52.196;9.904;2022-08-19T01:08:48;12.27;;;9.37;;
13641;SDS011;6894;52.196;9.904;2022-08-19T01:11:15;9.87;;;8.70;;
13641;SDS011;6894;52.196;9.904;2022-08-19T01:13:42;9.43;;;8.50;;
13641;SDS011;6894;52.196;9.904;2022-08-19T01:16:10;9.37;;;8.43;;
13641;SDS011;6894;52.196;9.904;2022-08-19T01:18:40;13.80;;;10.20;;
13641;SDS011;6894;52.196;9.904;2022-08-19T01:21:09;13.47;;;10.57;;
13641;SDS011;6894;52.196;9.904;2022-08-19T01:23:42;10.93;;;9.33;;
13641;SDS011;6894;52.196;9.904;2022-08-19T01:26:10;10.63;;;9.63;;
13641;SDS011;6894;52.196;9.904;2022-08-19T01:28:39;11.43;;;9.53;;
13641;SDS011;6894;52.196;9.904;2022-08-19T01:31:07;10.40;;;8.40;;
13641;SDS011;6894;52.196;9.904;2022-08-19T01:33:36;10.07;;;9.07;;
13641;SDS011;6894;52.196;9.904;2022-08-19T01:36:07;11.07;;;9.50;;
13641;SDS011;6894;52.196;9.904;2022-08-19T01:38:36;10.10;;;9.10;;
13641;SDS011;6894;52.196;9.904;2022-08-19T01:41:06;10.03;;;9.03;;
13641;SDS011;6894;52.196;9.904;2022-08-19T01:43:33;11.33;;;9.37;;
13641;SDS011;6894;52.196;9.904;2022-08-19T01:46:01;11.13;;;9.47;;
13641;SDS011;6894;52.196;9.904;2022-08-19T01:48:32;9.33;;;8.47;;
13641;SDS011;6894;52.196;9.904;2022-08-19T01:50:59;10.97;;;8.30;;
13641;SDS011;6894;52.196;9.904;2022-08-19T01:53:26;10.50;;;9.33;;
13641;SDS011;6894;52.196;9.904;2022-08-19T01:55:53;10.07;;;9.07;;
13641;SDS011;6894;52.196;9.904;2022-08-19T01:58:23;8.63;;;7.73;;
13641;SDS011;6894;52.196;9.904;2022-08-19T02:00:54;10.53;;;8.10;;
13641;SDS011;6894;52.196;9.904;2022-08-19T02:03:21;9.90;;;8.90;;
13641;SDS011;6894;52.196;9.904;2022-08-19T02:05:53;12.00;;;9.80;;
13641;SDS011;6894;52.196;9.904;2022-08-19T02:08:20;10.10;;;8.67;;
13641;SDS011;6894;52.196;9.904;2022-08-19T02:10:47;10.93;;;9.80;;
13641;SDS011;6894;52.196;9.904;2022-08-19T02:13:14;12.87;;;10.47;;
13641;SDS011;6894;52.196;9.904;2022-08-19T02:15:42;9.57;;;8.57;;
13641;SDS011;6894;52.196;9.904;2022-08-19T02:18:09;9.53;;;8.57;;
13641;SDS011;6894;52.196;9.904;2022-08-19T02:20:36;11.60;;;9.87;;
13641;SDS011;6894;52.196;9.904;2022-08-19T02:23:04;10.20;;;9.27;;
13641;SDS011;6894;52.196;9.904;2022-08-19T02:25:31;10.13;;;9.13;;
13641;SDS011;6894;52.196;9.904;2022-08-19T02:27:58;12.30;;;10.37;;
13641;SDS011;6894;52.196;9.904;2022-08-19T02:30:25;13.67;;;10.30;;
13641;SDS011;6894;52.196;9.904;2022-08-19T02:32:53;13.17;;;10.47;;
13641;SDS011;6894;52.196;9.904;2022-08-19T02:35:20;14.00;;;10.53;;
13641;SDS011;6894;52.196;9.904;2022-08-19T02:37:47;13.20;;;10.53;;
13641;SDS011;6894;52.196;9.904;2022-08-19T02:40:32;10.40;;;9.30;;
13641;SDS011;6894;52.196;9.904;2022-08-19T02:42:59;11.33;;;10.10;;
13641;SDS011;6894;52.196;9.904;2022-08-19T02:45:27;12.63;;;10.13;;
13641;SDS011;6894;52.196;9.904;2022-08-19T02:47:58;10.17;;;9.17;;
13641;SDS011;6894;52.196;9.904;2022-08-19T02:50:25;9.77;;;8.77;;
13641;SDS011;6894;52.196;9.904;2022-08-19T02:52:52;14.77;;;11.00;;
13641;SDS011;6894;52.196;9.904;2022-08-19T02:55:19;10.93;;;9.83;;
13641;SDS011;6894;52.196;9.904;2022-08-19T02:57:46;12.37;;;9.73;;
13641;SDS011;6894;52.196;9.904;2022-08-19T03:00:14;13.50;;;9.27;;
13641;SDS011;6894;52.196;9.904;2022-08-19T03:02:41;11.90;;;10.80;;
13641;SDS011;6894;52.196;9.904;2022-08-19T03:05:09;12.00;;;10.80;;
13641;SDS011;6894;52.196;9.904;2022-08-19T03:07:37;11.10;;;10.10;;
13641;SDS011;6894;52.196;9.904;2022-08-19T03:10:04;14.00;;;11.40;;
13641;SDS011;6894;52.196;9.904;2022-08-19T03:12:34;12.80;;;9.83;;
13641;SDS011;6894;52.196;9.904;2022-08-19T03:15:02;12.30;;;11.10;;
13641;SDS011;6894;52.196;9.904;2022-08-19T03:17:29;11.00;;;9.90;;
13641;SDS011;6894;52.196;9.904;2022-08-19T03:19:56;12.03;;;9.87;;
13641;SDS011;6894;52.196;9.904;2022-08-19T03:22:24;12.27;;;11.00;;
13641;SDS011;6894;52.196;9.904;2022-08-19T03:24:51;10.20;;;8.90;;
13641;SDS011;6894;52.196;9.904;2022-08-19T03:27:18;11.20;;;10.00;;
13641;SDS011;6894;52.196;9.904;2022-08-19T03:29:45;10.87;;;9.70;;
13641;SDS011;6894;52.196;9.904;2022-08-19T03:32:12;12.83;;;11.53;;
13641;SDS011;6894;52.196;9.904;2022-08-19T03:34:39;13.10;;;11.67;;
13641;SDS011;6894;52.196;9.904;2022-08-19T03:37:07;11.40;;;10.20;;
13641;SDS011;6894;52.196;9.904;2022-08-19T03:39:38;12.40;;;11.10;;
13641;SDS011;6894;52.196;9.904;2022-08-19T03:42:07;13.03;;;9.80;;
13641;SDS011;6894;52.196;9.904;2022-08-19T03:44:34;11.67;;;10.57;;
13641;SDS011;6894;52.196;9.904;2022-08-19T03:47:02;11.50;;;10.17;;
13641;SDS011;6894;52.196;9.904;2022-08-19T03:49:30;10.37;;;9.37;;
13641;SDS011;6894;52.196;9.904;2022-08-19T03:52:00;12.40;;;11.10;;
13641;SDS011;6894;52.196;9.904;2022-08-19T03:54:27;13.47;;;11.47;;
13641;SDS011;6894;52.196;9.904;2022-08-19T03:56:56;14.33;;;13.00;;
13641;SDS011;6894;52.196;9.904;2022-08-19T03:59:24;14.53;;;12.67;;
13641;SDS011;6894;52.196;9.904;2022-08-19T04:01:52;14.60;;;13.03;;
13641;SDS011;6894;52.196;9.904;2022-08-19T04:04:20;15.20;;;13.83;;
13641;SDS011;6894;52.196;9.904;2022-08-19T04:06:47;16.43;;;13.90;;
13641;SDS011;6894;52.196;9.904;2022-08-19T04:09:14;17.03;;;15.10;;
13641;SDS011;6894;52.196;9.904;2022-08-19T04:11:43;20.17;;;15.47;;
13641;SDS011;6894;52.196;9.904;2022-08-19T04:14:15;19.70;;;15.50;;
13641;SDS011;6894;52.196;9.904;2022-08-19T04:16:43;16.40;;;14.73;;
13641;SDS011;6894;52.196;9.904;2022-08-19T04:19:11;16.00;;;14.30;;
13641;SDS011;6894;52.196;9.904;2022-08-19T04:21:39;15.13;;;13.63;;
13641;SDS011;6894;52.196;9.904;2022-08-19T04:24:06;15.60;;;14.00;;
13641;SDS011;6894;52.196;9.904;2022-08-19T04:26:35;17.93;;;13.97;;
13641;SDS011;6894;52.196;9.904;2022-08-19T04:29:08;19.60;;;13.93;;
13641;SDS011;6894;52.196;9.904;2022-08-19T04:31:39;17.30;;;14.53;;
13641;SDS011;6894;52.196;9.904;2022-08-19T04:34:08;15.07;;;13.57;;
13641;SDS011;6894;52.196;9.904;2022-08-19T04:36:37;19.67;;;13.93;;
13641;SDS011;6894;52.196;9.904;2022-08-19T04:39:07;15.77;;;13.30;;
13641;SDS011;6894;52.196;9.904;2022-08-19T04:41:37;15.47;;;13.80;;
13641;SDS011;6894;52.196;9.904;2022-08-19T04:44:21;14.83;;;13.30;;
13641;SDS011;6894;52.196;9.904;2022-08-19T04:46:50;16.07;;;12.80;;
13641;SDS011;6894;52.196;9.904;2022-08-19T04:49:18;15.20;;;13.33;;
13641;SDS011;6894;52.196;9.904;2022-08-19T04:51:46;15.30;;;13.03;;
13641;SDS011;6894;52.196;9.904;2022-08-19T04:54:15;15.83;;;13.73;;
13641;SDS011;6894;52.196;9.904;2022-08-19T04:56:42;16.70;;;14.27;;
13641;SDS011;6894;52.196;9.904;2022-08-19T04:59:09;17.17;;;12.87;;
13641;SDS011;6894;52.196;9.904;2022-08-19T05:01:36;13.63;;;12.33;;
13641;SDS011;6894;52.196;9.904;2022-08-19T05:04:05;14.53;;;13.03;;
13641;SDS011;6894;52.196;9.904;2022-08-19T05:06:33;19.70;;;13.47;;
13641;SDS011;6894;52.196;9.904;2022-08-19T05:09:02;14.80;;;12.30;;
13641;SDS011;6894;52.196;9.904;2022-08-19T05:11:31;13.87;;;12.20;;
13641;SDS011;6894;52.196;9.904;2022-08-19T05:14:00;13.50;;;12.20;;
13641;SDS011;6894;52.196;9.904;2022-08-19T05:16:27;13.10;;;11.73;;
13641;SDS011;6894;52.196;9.904;2022-08-19T05:18:54;13.10;;;11.73;;
13641;SDS011;6894;52.196;9.904;2022-08-19T05:21:40;12.83;;;11.43;;
13641;SDS011;6894;52.196;9.904;2022-08-19T05:24:37;13.70;;;10.83;;
13641;SDS011;6894;52.196;9.904;2022-08-19T05:27:09;14.60;;;11.90;;
13641;SDS011;6894;52.196;9.904;2022-08-19T05:29:36;14.53;;;11.60;;
13641;SDS011;6894;52.196;9.904;2022-08-19T05:32:03;11.80;;;10.47;;
13641;SDS011;6894;52.196;9.904;2022-08-19T05:34:33;12.67;;;10.40;;
13641;SDS011;6894;52.196;9.904;2022-08-19T05:37:02;14.00;;;10.53;;
13641;SDS011;6894;52.196;9.904;2022-08-19T05:39:30;11.83;;;10.73;;
13641;SDS011;6894;52.196;9.904;2022-08-19T05:42:00;11.97;;;10.40;;
13641;SDS011;6894;52.196;9.904;2022-08-19T05:44:32;13.83;;;10.30;;
13641;SDS011;6894;52.196;9.904;2022-08-19T05:47:02;11.80;;;10.20;;
13641;SDS011;6894;52.196;9.904;2022-08-19T05:49:31;14.00;;;11.20;;
13641;SDS011;6894;52.196;9.904;2022-08-19T05:52:02;11.67;;;10.53;;
13641;SDS011;6894;52.196;9.904;2022-08-19T05:54:29;12.57;;;10.50;;
13641;SDS011;6894;52.196;9.904;2022-08-19T05:56:56;11.90;;;10.63;;
13641;SDS011;6894;52.196;9.904;2022-08-19T05:59:23;13.40;;;10.77;;
13641;SDS011;6894;52.196;9.904;2022-08-19T06:01:52;12.23;;;10.83;;
13641;SDS011;6894;52.196;9.904;2022-08-19T06:04:22;11.47;;;10.37;;
13641;SDS011;6894;52.196;9.904;2022-08-19T06:06:50;11.13;;;10.00;;
13641;SDS011;6894;52.196;9.904;2022-08-19T06:09:20;12.40;;;10.27;;
13641;SDS011;6894;52.196;9.904;2022-08-19T06:11:49;10.70;;;9.60;;
13641;SDS011;6894;52.196;9.904;2022-08-19T06:14:20;11.37;;;10.27;;
13641;SDS011;6894;52.196;9.904;2022-08-19T06:16:49;11.23;;;10.13;;
13641;SDS011;6894;52.196;9.904;2022-08-19T06:19:17;12.70;;;11.40;;
13641;SDS011;6894;52.196;9.904;2022-08-19T06:21:47;12.60;;;11.30;;
13641;SDS011;6894;52.196;9.904;2022-08-19T06:24:16;13.67;;;12.20;;
13641;SDS011;6894;52.196;9.904;2022-08-19T06:26:47;15.67;;;12.60;;
13641;SDS011;6894;52.196;9.904;2022-08-19T06:29:16;16.03;;;12.63;;
13641;SDS011;6894;52.196;9.904;2022-08-19T06:31:45;15.93;;;13.60;;
13641;SDS011;6894;52.196;9.904;2022-08-19T06:34:17;20.67;;;13.33;;
13641;SDS011;6894;52.196;9.904;2022-08-19T06:36:46;19.00;;;13.93;;
13641;SDS011;6894;52.196;9.904;2022-08-19T06:39:15;21.07;;;14.17;;
13641;SDS011;6894;52.196;9.904;2022-08-19T06:41:47;16.60;;;14.90;;
13641;SDS011;6894;52.196;9.904;2022-08-19T06:44:15;16.60;;;14.90;;
13641;SDS011;6894;52.196;9.904;2022-08-19T06:46:42;17.93;;;14.83;;
13641;SDS011;6894;52.196;9.904;2022-08-19T06:49:10;17.07;;;15.37;;
13641;SDS011;6894;52.196;9.904;2022-08-19T06:51:39;15.90;;;14.27;;
13641;SDS011;6894;52.196;9.904;2022-08-19T06:54:07;18.73;;;15.43;;
13641;SDS011;6894;52.196;9.904;2022-08-19T06:56:34;17.30;;;15.50;;
13641;SDS011;6894;52.196;9.904;2022-08-19T06:59:02;19.53;;;16.10;;
13641;SDS011;6894;52.196;9.904;2022-08-19T07:01:33;22.83;;;17.43;;
13641;SDS011;6894;52.196;9.904;2022-08-19T07:04:03;22.93;;;17.80;;
13641;SDS011;6894;52.196;9.904;2022-08-19T07:06:30;23.83;;;17.83;;
13641;SDS011;6894;52.196;9.904;2022-08-19T07:08:57;22.00;;;17.20;;
13641;SDS011;6894;52.196;9.904;2022-08-19T07:11:24;27.40;;;17.20;;
13641;SDS011;6894;52.196;9.904;2022-08-19T07:13:51;25.00;;;17.77;;
13641;SDS011;6894;52.196;9.904;2022-08-19T07:16:19;23.43;;;18.83;;
13641;SDS011;6894;52.196;9.904;2022-08-19T07:18:46;27.60;;;18.30;;
13641;SDS011;6894;52.196;9.904;2022-08-19T07:21:15;23.70;;;17.57;;
13641;SDS011;6894;52.196;9.904;2022-08-19T07:23:43;23.33;;;18.47;;
13641;SDS011;6894;52.196;9.904;2022-08-19T07:26:12;30.70;;;19.53;;
13641;SDS011;6894;52.196;9.904;2022-08-19T07:28:42;23.73;;;18.43;;
13641;SDS011;6894;52.196;9.904;2022-08-19T07:31:10;25.40;;;18.83;;
13641;SDS011;6894;52.196;9.904;2022-08-19T07:33:40;21.83;;;17.30;;
13641;SDS011;6894;52.196;9.904;2022-08-19T07:36:08;23.50;;;18.27;;
13641;SDS011;6894;52.196;9.904;2022-08-19T07:38:37;23.90;;;18.10;;
13641;SDS011;6894;52.196;9.904;2022-08-19T07:41:06;23.67;;;19.33;;
13641;SDS011;6894;52.196;9.904;2022-08-19T07:43:35;20.43;;;16.47;;
13641;SDS011;6894;52.196;9.904;2022-08-19T07:46:02;18.23;;;16.37;;
13641;SDS011;6894;52.196;9.904;2022-08-19T07:48:29;22.23;;;17.47;;
13641;SDS011;6894;52.196;9.904;2022-08-19T07:50:58;23.60;;;18.67;;
13641;SDS011;6894;52.196;9.904;2022-08-19T07:53:26;23.23;;;18.70;;
13641;SDS011;6894;52.196;9.904;2022-08-19T07:55:54;23.33;;;18.23;;
13641;SDS011;6894;52.196;9.904;2022-08-19T07:58:29;19.60;;;16.57;;
13641;SDS011;6894;52.196;9.904;2022-08-19T08:00:57;16.47;;;14.70;;
13641;SDS011;6894;52.196;9.904;2022-08-19T08:03:24;16.73;;;14.37;;
13641;SDS011;6894;52.196;9.904;2022-08-19T08:06:07;17.27;;;15.57;;
13641;SDS011;6894;52.196;9.904;2022-08-19T08:08:51;20.43;;;16.20;;
13641;SDS011;6894;52.196;9.904;2022-08-19T08:11:37;17.90;;;15.67;;
13641;SDS011;6894;52.196;9.904;2022-08-19T08:14:04;18.17;;;16.23;;
13641;SDS011;6894;52.196;9.904;2022-08-19T08:16:32;16.00;;;14.33;;
13641;SDS011;6894;52.196;9.904;2022-08-19T08:19:00;15.43;;;13.60;;
13641;SDS011;6894;52.196;9.904;2022-08-19T08:21:28;14.70;;;13.30;;
13641;SDS011;6894;52.196;9.904;2022-08-19T08:23:57;13.97;;;12.60;;
13641;SDS011;6894;52.196;9.904;2022-08-19T08:26:24;13.97;;;12.63;;
13641;SDS011;6894;52.196;9.904;2022-08-19T08:28:54;15.07;;;13.17;;
13641;SDS011;6894;52.196;9.904;2022-08-19T08:31:24;16.57;;;14.77;;
13641;SDS011;6894;52.196;9.904;2022-08-19T08:33:51;13.77;;;12.30;;
13641;SDS011;6894;52.196;9.904;2022-08-19T08:36:20;15.20;;;13.63;;
13641;SDS011;6894;52.196;9.904;2022-08-19T08:38:48;13.43;;;12.00;;
13641;SDS011;6894;52.196;9.904;2022-08-19T08:41:18;14.60;;;12.30;;
13641;SDS011;6894;52.196;9.904;2022-08-19T08:43:51;15.83;;;11.80;;
13641;SDS011;6894;52.196;9.904;2022-08-19T08:46:20;14.93;;;13.30;;
13641;SDS011;6894;52.196;9.904;2022-08-19T08:48:51;13.33;;;11.87;;
13641;SDS011;6894;52.196;9.904;2022-08-19T08:51:25;11.33;;;10.23;;
13641;SDS011;6894;52.196;9.904;2022-08-19T08:54:00;11.23;;;10.03;;
13641;SDS011;6894;52.196;9.904;2022-08-19T08:56:28;11.43;;;10.33;;
13641;SDS011;6894;52.196;9.904;2022-08-19T08:58:57;11.57;;;10.33;;
13641;SDS011;6894;52.196;9.904;2022-08-19T09:01:26;9.80;;;8.90;;
13641;SDS011;6894;52.196;9.904;2022-08-19T09:03:54;9.57;;;8.77;;
13641;SDS011;6894;52.196;9.904;2022-08-19T09:06:22;10.60;;;9.50;;
13641;SDS011;6894;52.196;9.904;2022-08-19T09:09:00;9.43;;;8.50;;
13641;SDS011;6894;52.196;9.904;2022-08-19T09:11:33;10.87;;;9.77;;
13641;SDS011;6894;52.196;9.904;2022-08-19T09:14:08;9.90;;;9.10;;
13641;SDS011;6894;52.196;9.904;2022-08-19T09:16:43;9.93;;;8.90;;
13641;SDS011;6894;52.196;9.904;2022-08-19T09:19:10;8.77;;;7.13;;
13641;SDS011;6894;52.196;9.904;2022-08-19T09:21:37;8.13;;;7.37;;
13641;SDS011;6894;52.196;9.904;2022-08-19T09:24:05;8.47;;;7.47;;
13641;SDS011;6894;52.196;9.904;2022-08-19T09:26:32;9.00;;;8.10;;
13641;SDS011;6894;52.196;9.904;2022-08-19T09:28:59;9.10;;;8.20;;
13641;SDS011;6894;52.196;9.904;2022-08-19T09:31:29;7.83;;;6.93;;
13641;SDS011;6894;52.196;9.904;2022-08-19T09:33:57;8.73;;;7.80;;
13641;SDS011;6894;52.196;9.904;2022-08-19T09:36:26;6.97;;;6.27;;
13641;SDS011;6894;52.196;9.904;2022-08-19T09:38:57;13.57;;;6.70;;
13641;SDS011;6894;52.196;9.904;2022-08-19T09:41:26;6.87;;;6.17;;
13641;SDS011;6894;52.196;9.904;2022-08-19T09:43:53;6.97;;;6.30;;
13641;SDS011;6894;52.196;9.904;2022-08-19T09:46:22;6.60;;;5.60;;
13641;SDS011;6894;52.196;9.904;2022-08-19T09:48:51;7.43;;;6.73;;
13641;SDS011;6894;52.196;9.904;2022-08-19T09:51:19;9.87;;;6.27;;
13641;SDS011;6894;52.196;9.904;2022-08-19T09:53:47;6.03;;;5.13;;
13641;SDS011;6894;52.196;9.904;2022-08-19T09:56:16;5.70;;;5.10;;
13641;SDS011;6894;52.196;9.904;2022-08-19T09:58:46;5.90;;;5.35;;
13641;SDS011;6894;52.196;9.904;2022-08-19T10:01:15;6.60;;;5.90;;
13641;SDS011;6894;52.196;9.904;2022-08-19T10:03:46;5.60;;;5.07;;
13641;SDS011;6894;52.196;9.904;2022-08-19T10:06:17;6.05;;;5.13;;
13641;SDS011;6894;52.196;9.904;2022-08-19T10:08:45;6.97;;;6.25;;
13641;SDS011;6894;52.196;9.904;2022-08-19T10:11:13;7.13;;;5.78;;
13641;SDS011;6894;52.196;9.904;2022-08-19T10:13:42;5.22;;;4.80;;
13641;SDS011;6894;52.196;9.904;2022-08-19T10:16:11;5.05;;;4.20;;
13641;SDS011;6894;52.196;9.904;2022-08-19T10:18:42;6.85;;;6.18;;
13641;SDS011;6894;52.196;9.904;2022-08-19T10:21:11;6.82;;;4.60;;
13641;SDS011;6894;52.196;9.904;2022-08-19T10:23:39;5.30;;;4.80;;
13641;SDS011;6894;52.196;9.904;2022-08-19T10:26:10;6.25;;;5.65;;
13641;SDS011;6894;52.196;9.904;2022-08-19T10:28:38;7.25;;;4.00;;
13641;SDS011;6894;52.196;9.904;2022-08-19T10:31:06;4.90;;;4.40;;
13641;SDS011;6894;52.196;9.904;2022-08-19T10:33:35;5.18;;;3.80;;
13641;SDS011;6894;52.196;9.904;2022-08-19T10:36:04;3.80;;;3.45;;
13641;SDS011;6894;52.196;9.904;2022-08-19T10:38:32;4.53;;;2.88;;
13641;SDS011;6894;52.196;9.904;2022-08-19T10:41:05;5.53;;;3.50;;
13641;SDS011;6894;52.196;9.904;2022-08-19T10:43:33;6.93;;;4.35;;
13641;SDS011;6894;52.196;9.904;2022-08-19T10:46:02;4.07;;;3.15;;
13641;SDS011;6894;52.196;9.904;2022-08-19T10:48:30;4.97;;;3.53;;
13641;SDS011;6894;52.196;9.904;2022-08-19T10:50:59;4.32;;;2.95;;
13641;SDS011;6894;52.196;9.904;2022-08-19T10:53:43;4.40;;;2.45;;
13641;SDS011;6894;52.196;9.904;2022-08-19T10:56:10;1.85;;;1.67;;
13641;SDS011;6894;52.196;9.904;2022-08-19T10:58:55;1.90;;;1.70;;
13641;SDS011;6894;52.196;9.904;2022-08-19T11:01:23;3.28;;;2.00;;
13641;SDS011;6894;52.196;9.904;2022-08-19T11:03:50;2.65;;;1.60;;
13641;SDS011;6894;52.196;9.904;2022-08-19T11:06:19;4.90;;;1.63;;
13641;SDS011;6894;52.196;9.904;2022-08-19T11:08:46;2.05;;;1.77;;
13641;SDS011;6894;52.196;9.904;2022-08-19T11:11:13;2.65;;;1.58;;
13641;SDS011;6894;52.196;9.904;2022-08-19T11:13:40;3.95;;;1.90;;
13641;SDS011;6894;52.196;9.904;2022-08-19T11:16:10;2.20;;;1.50;;
13641;SDS011;6894;52.196;9.904;2022-08-19T11:18:39;2.67;;;1.70;;
13641;SDS011;6894;52.196;9.904;2022-08-19T11:21:09;1.88;;;1.40;;
13641;SDS011;6894;52.196;9.904;2022-08-19T11:23:40;1.45;;;1.35;;
13641;SDS011;6894;52.196;9.904;2022-08-19T11:26:08;1.35;;;1.23;;
13641;SDS011;6894;52.196;9.904;2022-08-19T11:28:35;3.67;;;2.08;;
13641;SDS011;6894;52.196;9.904;2022-08-19T11:31:02;3.30;;;1.58;;
13641;SDS011;6894;52.196;9.904;2022-08-19T11:33:29;3.38;;;1.90;;
13641;SDS011;6894;52.196;9.904;2022-08-19T11:35:58;6.43;;;2.80;;
13641;SDS011;6894;52.196;9.904;2022-08-19T11:38:25;2.65;;;1.90;;
13641;SDS011;6894;52.196;9.904;2022-08-19T11:40:58;4.22;;;1.83;;
13641;SDS011;6894;52.196;9.904;2022-08-19T11:43:26;3.35;;;1.45;;
13641;SDS011;6894;52.196;9.904;2022-08-19T11:45:54;2.70;;;1.58;;
13641;SDS011;6894;52.196;9.904;2022-08-19T11:48:21;3.17;;;1.40;;
13641;SDS011;6894;52.196;9.904;2022-08-19T11:50:48;2.17;;;1.40;;
13641;SDS011;6894;52.196;9.904;2022-08-19T11:53:16;3.03;;;1.50;;
13641;SDS011;6894;52.196;9.904;2022-08-19T11:55:45;1.88;;;1.45;;
13641;SDS011;6894;52.196;9.904;2022-08-19T11:58:14;3.70;;;1.70;;
13641;SDS011;6894;52.196;9.904;2022-08-19T12:00:42;1.98;;;1.40;;
13641;SDS011;6894;52.196;9.904;2022-08-19T12:03:11;2.28;;;1.50;;
13641;SDS011;6894;52.196;9.904;2022-08-19T12:05:39;2.53;;;1.20;;
13641;SDS011;6894;52.196;9.904;2022-08-19T12:08:07;3.10;;;2.00;;
13641;SDS011;6894;52.196;9.904;2022-08-19T12:10:34;2.95;;;1.30;;
13641;SDS011;6894;52.196;9.904;2022-08-19T12:13:02;1.92;;;1.70;;
13641;SDS011;6894;52.196;9.904;2022-08-19T12:15:30;2.08;;;1.67;;
13641;SDS011;6894;52.196;9.904;2022-08-19T12:18:02;2.10;;;1.50;;
13641;SDS011;6894;52.196;9.904;2022-08-19T12:20:29;6.22;;;5.63;;
13641;SDS011;6894;52.196;9.904;2022-08-19T12:22:56;36.08;;;21.25;;
13641;SDS011;6894;52.196;9.904;2022-08-19T12:25:23;47.38;;;24.83;;
13641;SDS011;6894;52.196;9.904;2022-08-19T12:27:49;65.18;;;38.55;;
13641;SDS011;6894;52.196;9.904;2022-08-19T12:30:16;19.33;;;14.13;;
13641;SDS011;6894;52.196;9.904;2022-08-19T12:32:45;17.52;;;11.57;;
13641;SDS011;6894;52.196;9.904;2022-08-19T12:35:11;22.65;;;14.82;;
13641;SDS011;6894;52.196;9.904;2022-08-19T12:37:38;35.25;;;20.27;;
13641;SDS011;6894;52.196;9.904;2022-08-19T12:40:09;8.35;;;5.80;;
13641;SDS011;6894;52.196;9.904;2022-08-19T12:42:37;2.65;;;1.40;;
13641;SDS011;6894;52.196;9.904;2022-08-19T12:45:07;5.95;;;1.50;;
13641;SDS011;6894;52.196;9.904;2022-08-19T12:47:35;2.22;;;1.13;;
13641;SDS011;6894;52.196;9.904;2022-08-19T12:50:04;1.40;;;1.30;;
13641;SDS011;6894;52.196;9.904;2022-08-19T12:52:33;1.55;;;1.30;;
13641;SDS011;6894;52.196;9.904;2022-08-19T12:55:03;1.95;;;1.40;;
13641;SDS011;6894;52.196;9.904;2022-08-19T12:57:31;3.50;;;1.65;;
13641;SDS011;6894;52.196;9.904;2022-08-19T13:00:01;2.35;;;1.35;;
13641;SDS011;6894;52.196;9.904;2022-08-19T13:02:32;2.20;;;1.40;;
13641;SDS011;6894;52.196;9.904;2022-08-19T13:04:59;0.95;;;0.90;;
13641;SDS011;6894;52.196;9.904;2022-08-19T13:07:28;1.35;;;1.20;;
13641;SDS011;6894;52.196;9.904;2022-08-19T13:09:55;2.25;;;1.40;;
13641;SDS011;6894;52.196;9.904;2022-08-19T13:12:22;2.22;;;1.23;;
13641;SDS011;6894;52.196;9.904;2022-08-19T13:14:51;14.38;;;9.52;;
13641;SDS011;6894;52.196;9.904;2022-08-19T13:17:18;72.85;;;41.42;;
13641;SDS011;6894;52.196;9.904;2022-08-19T13:19:46;441.77;;;237.90;;
13641;SDS011;6894;52.196;9.904;2022-08-19T13:22:13;292.58;;;147.32;;
13641;SDS011;6894;52.196;9.904;2022-08-19T13:24:41;87.13;;;51.13;;
13641;SDS011;6894;52.196;9.904;2022-08-19T13:27:08;4.57;;;3.65;;
13641;SDS011;6894;52.196;9.904;2022-08-19T13:29:35;2.55;;;1.42;;
13641;SDS011;6894;52.196;9.904;2022-08-19T13:32:19;7.80;;;5.82;;
13641;SDS011;6894;52.196;9.904;2022-08-19T13:35:04;24.13;;;15.68;;
13641;SDS011;6894;52.196;9.904;2022-08-19T13:37:31;27.40;;;14.65;;
13641;SDS011;6894;52.196;9.904;2022-08-19T13:40:09;26.30;;;16.95;;
13641;SDS011;6894;52.196;9.904;2022-08-19T13:42:40;54.08;;;29.35;;
13641;SDS011;6894;52.196;9.904;2022-08-19T13:45:08;10.55;;;8.25;;
13641;SDS011;6894;52.196;9.904;2022-08-19T13:47:35;21.65;;;13.32;;
13641;SDS011;6894;52.196;9.904;2022-08-19T13:50:08;95.85;;;54.88;;
13641;SDS011;6894;52.196;9.904;2022-08-19T13:52:35;66.72;;;42.15;;
13641;SDS011;6894;52.196;9.904;2022-08-19T13:55:02;11.98;;;10.68;;
13641;SDS011;6894;52.196;9.904;2022-08-19T13:57:31;7.53;;;6.40;;
13641;SDS011;6894;52.196;9.904;2022-08-19T13:59:58;8.07;;;7.25;;
13641;SDS011;6894;52.196;9.904;2022-08-19T14:02:25;39.17;;;26.10;;
13641;SDS011;6894;52.196;9.904;2022-08-19T14:04:52;7.82;;;5.70;;
13641;SDS011;6894;52.196;9.904;2022-08-19T14:07:19;2.50;;;1.30;;
13641;SDS011;6894;52.196;9.904;2022-08-19T14:09:48;2.42;;;1.40;;
13641;SDS011;6894;52.196;9.904;2022-08-19T14:12:18;1.10;;;1.00;;
13641;SDS011;6894;52.196;9.904;2022-08-19T14:14:46;2.00;;;1.10;;
13641;SDS011;6894;52.196;9.904;2022-08-19T14:17:13;3.55;;;1.10;;
13641;SDS011;6894;52.196;9.904;2022-08-19T14:19:40;1.30;;;1.20;;
13641;SDS011;6894;52.196;9.904;2022-08-19T14:22:07;1.48;;;1.20;;
13641;SDS011;6894;52.196;9.904;2022-08-19T14:24:34;2.90;;;1.10;;
13641;SDS011;6894;52.196;9.904;2022-08-19T14:27:03;2.28;;;1.20;;
13641;SDS011;6894;52.196;9.904;2022-08-19T14:29:31;0.90;;;0.88;;
13641;SDS011;6894;52.196;9.904;2022-08-19T14:31:59;1.60;;;0.90;;
13641;SDS011;6894;52.196;9.904;2022-08-19T14:34:26;1.88;;;1.10;;
13641;SDS011;6894;52.196;9.904;2022-08-19T14:36:53;2.80;;;1.02;;
13641;SDS011;6894;52.196;9.904;2022-08-19T14:39:19;2.65;;;0.90;;
13641;SDS011;6894;52.196;9.904;2022-08-19T14:41:46;1.17;;;0.90;;
13641;SDS011;6894;52.196;9.904;2022-08-19T14:44:13;1.45;;;1.00;;
13641;SDS011;6894;52.196;9.904;2022-08-19T14:46:40;1.42;;;1.20;;
13641;SDS011;6894;52.196;9.904;2022-08-19T14:49:08;1.65;;;0.90;;
13641;SDS011;6894;52.196;9.904;2022-08-19T14:51:35;3.15;;;1.40;;
13641;SDS011;6894;52.196;9.904;2022-08-19T14:54:02;2.38;;;1.02;;
13641;SDS011;6894;52.196;9.904;2022-08-19T14:56:29;1.40;;;1.00;;